createdAt,value
2022-07-30T00:00:42.510Z,1.00
2022-07-30T00:03:13.856Z,1.20
2022-07-30T00:05:43.196Z,1.10
2022-07-30T00:08:13.883Z,1.25
2022-07-30T00:10:43.920Z,1.20
2022-07-30T00:13:15.295Z,1.25
2022-07-30T00:15:44.489Z,1.20
2022-07-30T00:18:16.028Z,1.30
2022-07-30T00:20:45.770Z,1.10
2022-07-30T00:23:15.661Z,1.35
2022-07-30T00:25:45.250Z,1.40
2022-07-30T00:28:14.401Z,1.00
2022-07-30T00:30:43.678Z,1.85
2022-07-30T00:33:15.039Z,1.50
2022-07-30T00:35:45.273Z,1.40
2022-07-30T00:38:15.390Z,1.42
2022-07-30T00:40:44.657Z,1.20
2022-07-30T00:43:18.158Z,1.35
2022-07-30T00:45:47.453Z,1.27
2022-07-30T00:48:18.993Z,1.45
2022-07-30T00:50:48.214Z,1.10
2022-07-30T00:53:17.751Z,1.10
2022-07-30T00:55:47.025Z,1.25
2022-07-30T00:58:16.317Z,1.35
2022-07-30T01:00:46.122Z,1.25
2022-07-30T01:03:15.307Z,1.25
2022-07-30T01:05:46.396Z,1.33
2022-07-30T01:08:16.394Z,1.42
2022-07-30T01:10:47.067Z,1.52
2022-07-30T01:13:16.354Z,1.20
2022-07-30T01:15:45.977Z,1.30
2022-07-30T01:18:17.729Z,1.00
2022-07-30T01:23:27.182Z,1.17
2022-07-30T01:26:03.888Z,1.15
2022-07-30T01:28:38.518Z,1.38
2022-07-30T01:31:13.376Z,1.10
2022-07-30T01:33:46.333Z,1.20
2022-07-30T01:36:19.954Z,1.30
2022-07-30T01:38:53.096Z,1.10
2022-07-30T01:41:26.021Z,1.15
2022-07-30T01:43:56.628Z,1.33
2022-07-30T01:46:27.218Z,1.50
2022-07-30T01:48:59.281Z,1.27
2022-07-30T01:51:37.408Z,1.52
2022-07-30T01:54:10.126Z,1.70
2022-07-30T01:56:44.947Z,1.45
2022-07-30T01:59:16.746Z,1.30
2022-07-30T02:01:52.071Z,1.48
2022-07-30T02:04:21.681Z,1.55
2022-07-30T02:06:59.708Z,1.52
2022-07-30T02:09:36.140Z,1.60
2022-07-30T02:12:32.026Z,1.70
2022-07-30T02:15:16.946Z,1.45
2022-07-30T02:17:56.794Z,1.52
2022-07-30T02:20:31.288Z,1.67
2022-07-30T02:23:05.039Z,1.70
2022-07-30T02:25:38.825Z,1.75
2022-07-30T02:28:13.387Z,1.48
2022-07-30T02:30:49.009Z,1.42
2022-07-30T02:33:21.225Z,1.50
2022-07-30T02:35:57.221Z,1.40
2022-07-30T02:38:28.746Z,1.50
2022-07-30T02:41:01.127Z,1.50
2022-07-30T02:43:36.142Z,1.50
2022-07-30T02:46:07.943Z,1.70
2022-07-30T02:48:59.395Z,1.20
2022-07-30T02:54:00.516Z,1.55
2022-07-30T02:56:31.327Z,1.50
2022-07-30T02:59:05.272Z,1.63
2022-07-30T03:01:35.956Z,1.55
2022-07-30T03:04:06.990Z,1.50
2022-07-30T03:06:38.215Z,1.60
2022-07-30T03:09:07.697Z,1.42
2022-07-30T03:11:39.257Z,1.63
2022-07-30T03:14:10.832Z,1.73
2022-07-30T03:16:43.838Z,1.65
2022-07-30T03:19:14.445Z,1.73
2022-07-30T03:21:44.535Z,1.33
2022-07-30T03:24:15.891Z,1.48
2022-07-30T03:26:46.573Z,1.73
2022-07-30T03:29:22.182Z,1.70
2022-07-30T03:31:52.568Z,1.50
2022-07-30T03:34:24.608Z,1.63
2022-07-30T03:36:54.655Z,1.48
2022-07-30T03:39:25.017Z,1.58
2022-07-30T03:41:55.683Z,1.30
2022-07-30T03:44:29.761Z,1.20
2022-07-30T03:47:03.629Z,1.60
2022-07-30T03:49:36.900Z,1.20
2022-07-30T03:52:09.078Z,1.70
2022-07-30T03:54:38.785Z,1.20
2022-07-30T03:57:28.868Z,1.30
2022-07-30T04:00:00.369Z,1.33
2022-07-30T04:02:29.574Z,1.50
2022-07-30T04:05:24.849Z,1.38
2022-07-30T04:07:55.551Z,1.58
2022-07-30T04:10:25.999Z,1.40
2022-07-30T04:13:01.139Z,1.40
2022-07-30T04:16:05.740Z,1.55
2022-07-30T04:18:36.742Z,1.38
2022-07-30T04:21:17.237Z,1.65
2022-07-30T04:24:03.250Z,1.30
2022-07-30T04:26:38.138Z,1.50
2022-07-30T04:29:09.588Z,1.52
2022-07-30T04:31:45.916Z,1.50
2022-07-30T04:34:48.563Z,1.40
2022-07-30T04:37:24.424Z,1.80
2022-07-30T04:39:56.285Z,1.50
2022-07-30T04:45:12.389Z,1.40
2022-07-30T04:47:55.290Z,1.52
2022-07-30T04:53:19.239Z,1.23
2022-07-30T04:55:56.229Z,1.35
2022-07-30T04:58:30.367Z,1.27
2022-07-30T05:01:01.541Z,1.70
2022-07-30T05:03:37.327Z,1.50
2022-07-30T05:06:08.480Z,1.75
2022-07-30T05:08:41.600Z,1.33
2022-07-30T05:11:14.736Z,1.38
2022-07-30T05:13:46.108Z,1.10
2022-07-30T05:16:17.773Z,1.25
2022-07-30T05:18:49.500Z,1.67
2022-07-30T05:21:18.802Z,1.48
2022-07-30T05:23:50.875Z,1.42
2022-07-30T05:26:32.495Z,2.00
2022-07-30T05:29:04.113Z,1.25
2022-07-30T05:31:50.643Z,1.13
2022-07-30T05:34:23.042Z,1.20
2022-07-30T05:36:54.236Z,1.20
2022-07-30T05:39:24.146Z,1.40
2022-07-30T05:42:12.092Z,1.10
2022-07-30T05:44:49.497Z,1.00
2022-07-30T05:47:20.745Z,1.30
2022-07-30T05:49:54.697Z,1.08
2022-07-30T05:52:25.077Z,1.35
2022-07-30T05:54:59.353Z,1.05
2022-07-30T05:57:52.734Z,1.02
2022-07-30T06:00:22.594Z,1.10
2022-07-30T06:02:55.502Z,1.38
2022-07-30T06:05:46.684Z,1.00
2022-07-30T06:08:16.058Z,1.10
2022-07-30T06:10:45.300Z,1.02
2022-07-30T06:13:14.986Z,1.13
2022-07-30T06:15:44.307Z,1.15
2022-07-30T06:18:13.589Z,1.20
2022-07-30T06:20:51.860Z,1.02
2022-07-30T06:23:40.022Z,1.30
2022-07-30T06:26:20.017Z,0.90
2022-07-30T06:28:49.538Z,1.60
2022-07-30T06:31:24.805Z,1.25
2022-07-30T06:33:54.677Z,1.15
2022-07-30T06:36:26.816Z,1.15
2022-07-30T06:39:04.891Z,1.30
2022-07-30T06:41:57.355Z,0.90
2022-07-30T06:44:31.163Z,0.90
2022-07-30T06:47:25.782Z,0.73
2022-07-30T06:49:56.637Z,0.80
2022-07-30T06:52:28.838Z,0.90
2022-07-30T06:54:58.779Z,0.90
2022-07-30T06:57:50.822Z,1.10
2022-07-30T07:00:49.162Z,0.67
2022-07-30T07:03:18.859Z,0.70
2022-07-30T07:05:49.858Z,0.73
2022-07-30T07:08:21.401Z,1.02
2022-07-30T07:10:58.428Z,0.80
2022-07-30T07:13:32.938Z,0.80
2022-07-30T07:16:04.814Z,0.73
2022-07-30T07:18:34.491Z,0.82
2022-07-30T07:21:07.936Z,0.98
2022-07-30T07:23:41.992Z,0.63
2022-07-30T07:26:32.893Z,0.98
2022-07-30T07:29:05.254Z,0.87
2022-07-30T07:32:06.390Z,0.77
2022-07-30T07:34:25.563Z,0.90
2022-07-30T07:36:55.389Z,0.90
2022-07-30T07:39:27.556Z,0.70
2022-07-30T07:41:57.958Z,0.77
2022-07-30T07:44:29.910Z,0.73
2022-07-30T07:46:59.920Z,0.98
2022-07-30T07:49:34.281Z,1.00
2022-07-30T07:52:04.221Z,1.00
2022-07-30T07:54:37.345Z,0.90
2022-07-30T07:57:10.561Z,0.90
2022-07-30T07:59:44.734Z,0.90
2022-07-30T08:02:22.016Z,1.00
2022-07-30T08:05:00.520Z,0.90
2022-07-30T08:07:38.893Z,0.98
2022-07-30T08:10:36.395Z,0.77
2022-07-30T08:13:51.458Z,0.77
2022-07-30T08:16:32.379Z,0.80
2022-07-30T08:19:11.722Z,0.90
2022-07-30T08:21:43.459Z,0.90
2022-07-30T08:24:12.922Z,0.98
2022-07-30T08:26:45.479Z,0.63
2022-07-30T08:29:17.240Z,0.82
2022-07-30T08:31:48.510Z,0.90
2022-07-30T08:34:19.885Z,0.80
2022-07-30T08:36:55.836Z,0.85
2022-07-30T08:39:25.376Z,0.88
2022-07-30T08:41:57.262Z,0.95
2022-07-30T08:44:28.452Z,0.95
2022-07-30T08:47:00.781Z,0.90
2022-07-30T08:49:53.260Z,0.85
2022-07-30T08:52:27.307Z,0.70
2022-07-30T08:55:03.965Z,1.00
2022-07-30T08:57:36.453Z,0.73
2022-07-30T09:00:09.115Z,1.70
2022-07-30T09:02:38.452Z,0.95
2022-07-30T09:05:11.193Z,0.90
2022-07-30T09:07:41.206Z,0.80
2022-07-30T09:10:16.983Z,0.68
2022-07-30T09:12:49.831Z,0.93
2022-07-30T09:15:20.831Z,0.90
2022-07-30T09:17:57.201Z,1.00
2022-07-30T09:20:30.813Z,1.05
2022-07-30T09:23:02.862Z,1.23
2022-07-30T09:26:07.558Z,1.15
2022-07-30T09:29:17.750Z,1.45
2022-07-30T09:32:07.464Z,1.17
2022-07-30T09:35:17.881Z,1.25
2022-07-30T09:38:23.493Z,0.90
2022-07-30T09:40:57.242Z,1.10
2022-07-30T09:43:52.042Z,0.93
2022-07-30T09:46:51.377Z,0.98
2022-07-30T09:49:29.356Z,1.30
2022-07-30T09:51:59.475Z,0.98
2022-07-30T09:54:51.053Z,0.80
2022-07-30T09:57:27.792Z,1.00
2022-07-30T10:00:19.846Z,1.35
2022-07-30T10:03:34.216Z,1.15
2022-07-30T10:06:38.001Z,1.20
2022-07-30T10:09:50.746Z,1.15
2022-07-30T10:12:23.988Z,1.65
2022-07-30T10:14:57.001Z,0.90
2022-07-30T10:17:26.711Z,0.98
2022-07-30T10:20:22.289Z,1.20
2022-07-30T10:23:10.278Z,1.00
2022-07-30T10:26:04.458Z,0.80
2022-07-30T10:28:43.629Z,1.00
2022-07-30T10:31:49.088Z,1.30
2022-07-30T10:34:03.956Z,1.23
2022-07-30T10:36:37.418Z,2.28
2022-07-30T10:39:09.384Z,1.40
2022-07-30T10:41:53.995Z,1.20
2022-07-30T10:44:47.418Z,0.90
2022-07-30T10:47:19.436Z,1.10
2022-07-30T10:50:07.184Z,1.23
2022-07-30T10:52:53.615Z,1.10
2022-07-30T10:55:36.931Z,1.20
2022-07-30T10:58:10.668Z,1.80
2022-07-30T11:01:00.903Z,0.98
2022-07-30T11:03:41.275Z,1.33
2022-07-30T11:06:28.888Z,0.80
2022-07-30T11:09:01.510Z,1.00
2022-07-30T11:12:01.335Z,0.90
2022-07-30T11:15:06.673Z,0.82
2022-07-30T11:18:15.185Z,0.88
2022-07-30T11:20:48.710Z,0.82
2022-07-30T11:23:40.531Z,0.82
2022-07-30T11:26:14.283Z,1.00
2022-07-30T11:28:46.220Z,0.93
2022-07-30T11:31:56.615Z,0.77
2022-07-30T11:34:30.969Z,1.10
2022-07-30T11:37:31.776Z,1.08
2022-07-30T11:40:12.411Z,1.10
2022-07-30T11:42:44.603Z,2.88
2022-07-30T11:45:34.086Z,1.13
2022-07-30T11:48:03.363Z,1.20
2022-07-30T11:50:34.706Z,1.20
2022-07-30T11:53:05.794Z,1.15
2022-07-30T11:55:38.409Z,1.30
2022-07-30T11:58:11.805Z,0.98
2022-07-30T12:00:47.320Z,1.00
2022-07-30T12:03:18.001Z,0.95
2022-07-30T12:05:51.131Z,1.20
2022-07-30T12:08:32.760Z,1.30
2022-07-30T12:11:06.694Z,1.17
2022-07-30T12:13:43.461Z,1.30
2022-07-30T12:16:18.083Z,1.25
2022-07-30T12:21:17.536Z,1.23
2022-07-30T12:23:56.610Z,1.02
2022-07-30T12:26:28.402Z,1.08
2022-07-30T12:29:03.139Z,1.20
2022-07-30T12:31:38.498Z,0.95
2022-07-30T12:34:22.674Z,2.00
2022-07-30T12:36:52.005Z,1.35
2022-07-30T12:39:22.646Z,0.80
2022-07-30T12:41:53.642Z,1.10
2022-07-30T12:44:42.216Z,1.00
2022-07-30T12:47:25.837Z,0.95
2022-07-30T12:49:56.207Z,1.30
2022-07-30T12:58:02.854Z,0.70
2022-07-30T13:00:52.397Z,1.05
2022-07-30T13:03:24.714Z,1.00
2022-07-30T13:05:56.126Z,0.90
2022-07-30T13:08:50.105Z,1.25
2022-07-30T13:11:20.758Z,1.10
2022-07-30T13:13:52.837Z,1.33
2022-07-30T13:16:23.156Z,1.45
2022-07-30T13:18:52.923Z,1.70
2022-07-30T13:21:22.071Z,1.60
2022-07-30T13:23:54.123Z,1.10
2022-07-30T13:26:23.621Z,0.90
2022-07-30T13:28:58.662Z,1.20
2022-07-30T13:31:42.808Z,1.48
2022-07-30T13:34:13.215Z,1.40
2022-07-30T13:36:42.604Z,1.38
2022-07-30T13:39:12.877Z,1.20
2022-07-30T13:41:43.413Z,1.27
2022-07-30T13:44:14.614Z,1.13
2022-07-30T13:46:43.883Z,0.80
2022-07-30T13:49:13.127Z,0.93
2022-07-30T13:51:42.415Z,1.73
2022-07-30T13:54:13.863Z,1.40
2022-07-30T13:56:43.853Z,1.08
2022-07-30T13:59:15.054Z,1.23
2022-07-30T14:01:44.468Z,3.00
2022-07-30T14:04:13.739Z,1.00
2022-07-30T14:06:43.928Z,1.20
2022-07-30T14:09:13.119Z,1.00
2022-07-30T14:11:42.229Z,0.93
2022-07-30T14:14:11.588Z,1.20
2022-07-30T14:16:45.461Z,1.10
2022-07-30T14:19:23.140Z,1.00
2022-07-30T14:21:55.323Z,1.00
2022-07-30T14:24:24.779Z,1.05
2022-07-30T14:26:57.943Z,1.15
2022-07-30T14:29:27.963Z,1.02
2022-07-30T14:32:01.610Z,1.48
2022-07-30T14:34:30.954Z,1.00
2022-07-30T14:37:00.444Z,1.10
2022-07-30T14:39:29.909Z,1.10
2022-07-30T14:41:59.164Z,1.35
2022-07-30T14:44:28.425Z,1.55
2022-07-30T14:46:59.581Z,1.20
2022-07-30T14:49:29.093Z,1.00
2022-07-30T14:51:58.539Z,1.50
2022-07-30T14:54:27.842Z,1.55
2022-07-30T14:56:58.537Z,1.50
2022-07-30T14:59:30.187Z,1.20
2022-07-30T15:04:30.837Z,1.30
2022-07-30T15:07:00.071Z,1.73
2022-07-30T15:09:30.286Z,1.80
2022-07-30T15:12:22.743Z,2.60
2022-07-30T15:14:53.771Z,2.35
2022-07-30T15:17:26.100Z,2.00
2022-07-30T15:19:55.867Z,1.42
2022-07-30T15:22:25.560Z,1.27
2022-07-30T15:24:54.914Z,0.80
2022-07-30T15:27:33.190Z,1.60
2022-07-30T15:30:03.506Z,1.30
2022-07-30T15:32:35.611Z,0.90
2022-07-30T15:37:34.051Z,1.20
2022-07-30T15:40:03.468Z,1.90
2022-07-30T15:42:32.947Z,1.00
2022-07-30T15:45:17.221Z,0.93
2022-07-30T15:47:49.948Z,1.35
2022-07-30T15:50:19.541Z,0.90
2022-07-30T15:52:50.006Z,0.82
2022-07-30T15:55:19.354Z,1.00
2022-07-30T15:57:49.325Z,2.63
2022-07-30T16:00:18.969Z,2.42
2022-07-30T16:02:50.231Z,3.70
2022-07-30T16:05:19.567Z,3.65
2022-07-30T16:07:49.000Z,4.15
2022-07-30T16:10:18.376Z,3.95
2022-07-30T16:12:47.614Z,3.33
2022-07-30T16:15:16.942Z,5.47
2022-07-30T16:17:46.278Z,5.07
2022-07-30T16:20:17.454Z,5.03
2022-07-30T16:22:47.013Z,5.68
2022-07-30T16:25:16.284Z,3.80
2022-07-30T16:27:45.546Z,3.42
2022-07-30T16:30:15.181Z,5.38
2022-07-30T16:32:44.503Z,3.55
2022-07-30T16:35:13.702Z,2.20
2022-07-30T16:37:44.923Z,6.07
2022-07-30T16:40:15.170Z,2.10
2022-07-30T16:42:46.982Z,11.70
2022-07-30T16:45:17.410Z,11.30
2022-07-30T16:47:48.062Z,8.77
2022-07-30T16:50:17.415Z,4.38
2022-07-30T16:52:48.760Z,3.00
2022-07-30T16:57:46.893Z,2.72
2022-07-30T17:00:17.832Z,1.70
2022-07-30T17:02:47.134Z,1.77
2022-07-30T17:05:16.259Z,1.75
2022-07-30T17:07:47.484Z,1.55
2022-07-30T17:10:16.766Z,1.60
2022-07-30T17:12:57.184Z,1.55
2022-07-30T17:18:02.562Z,2.80
2022-07-30T17:20:33.728Z,1.60
2022-07-30T17:23:05.213Z,1.40
2022-07-30T17:25:34.554Z,1.60
2022-07-30T17:28:04.022Z,1.70
2022-07-30T17:30:33.460Z,1.35
2022-07-30T17:33:04.452Z,1.45
2022-07-30T17:35:36.207Z,1.25
2022-07-30T17:38:09.082Z,1.30
2022-07-30T17:40:38.277Z,1.60
2022-07-30T17:43:07.493Z,1.30
2022-07-30T17:45:38.048Z,1.20
2022-07-30T17:48:08.477Z,1.10
2022-07-30T17:50:38.771Z,1.58
2022-07-30T17:53:10.016Z,1.73
2022-07-30T17:55:39.480Z,1.63
2022-07-30T17:58:08.575Z,1.58
2022-07-30T18:00:37.993Z,1.95
2022-07-30T18:03:07.235Z,2.13
2022-07-30T18:05:36.702Z,1.80
2022-07-30T18:08:06.442Z,1.70
2022-07-30T18:10:37.565Z,1.90
2022-07-30T18:13:27.052Z,1.55
2022-07-30T18:15:57.766Z,1.80
2022-07-30T18:18:27.460Z,1.92
2022-07-30T18:20:56.745Z,1.73
2022-07-30T18:23:26.075Z,1.88
2022-07-30T18:26:06.378Z,2.28
2022-07-30T18:28:36.504Z,3.83
2022-07-30T18:31:06.594Z,4.30
2022-07-30T18:33:35.908Z,4.85
2022-07-30T18:36:13.483Z,2.83
2022-07-30T18:38:42.713Z,3.95
2022-07-30T18:41:13.883Z,3.67
2022-07-30T18:43:47.711Z,4.50
2022-07-30T18:46:17.989Z,3.70
2022-07-30T18:48:48.155Z,3.15
2022-07-30T18:51:18.267Z,3.70
2022-07-30T18:53:47.430Z,3.78
2022-07-30T18:56:18.498Z,3.97
2022-07-30T18:58:47.813Z,4.60
2022-07-30T19:01:17.909Z,3.97
2022-07-30T19:03:47.497Z,3.42
2022-07-30T19:06:16.758Z,2.70
2022-07-30T19:08:50.786Z,3.40
2022-07-30T19:11:22.413Z,3.40
2022-07-30T19:13:51.700Z,3.95
2022-07-30T19:16:20.831Z,4.20
2022-07-30T19:18:50.091Z,3.10
2022-07-30T19:21:19.339Z,3.00
2022-07-30T19:23:48.650Z,2.28
2022-07-30T19:26:18.624Z,2.67
2022-07-30T19:28:50.605Z,3.00
2022-07-30T19:31:19.951Z,3.83
2022-07-30T19:33:49.863Z,3.80
2022-07-30T19:36:20.620Z,4.53
2022-07-30T19:38:50.148Z,3.67
2022-07-30T19:41:19.699Z,5.30
2022-07-30T19:43:55.861Z,4.57
2022-07-30T19:46:28.297Z,3.95
2022-07-30T19:48:59.434Z,11.18
2022-07-30T19:52:09.473Z,11.35
2022-07-30T19:54:18.225Z,9.77
2022-07-30T19:56:47.360Z,9.02
2022-07-30T19:59:19.139Z,17.15
2022-07-30T20:02:08.518Z,9.75
2022-07-30T20:04:39.382Z,10.57
2022-07-30T20:07:12.954Z,9.45
2022-07-30T20:09:44.491Z,9.50
2022-07-30T20:12:14.184Z,10.02
2022-07-30T20:14:45.405Z,8.95
2022-07-30T20:17:15.358Z,9.27
2022-07-30T20:19:48.106Z,9.20
2022-07-30T20:22:18.555Z,9.23
2022-07-30T20:24:49.238Z,8.52
2022-07-30T20:27:37.345Z,9.43
2022-07-30T20:30:12.266Z,8.25
2022-07-30T20:32:46.401Z,7.80
2022-07-30T20:35:16.860Z,8.38
2022-07-30T20:37:54.713Z,7.65
2022-07-30T20:40:26.982Z,5.97
2022-07-30T20:42:57.111Z,6.50
2022-07-30T20:45:40.394Z,6.20
2022-07-30T20:48:17.086Z,5.93
2022-07-30T20:50:49.197Z,6.55
2022-07-30T20:53:19.421Z,6.22
2022-07-30T20:55:50.015Z,7.88
2022-07-30T20:58:20.832Z,7.25
2022-07-30T21:00:54.502Z,6.68
2022-07-30T21:03:24.172Z,4.72
2022-07-30T21:05:55.619Z,4.18
2022-07-30T21:08:25.300Z,3.88
2022-07-30T21:10:55.568Z,4.43
2022-07-30T21:13:26.054Z,4.68
2022-07-30T21:16:02.811Z,4.70
2022-07-30T21:18:33.526Z,4.55
2022-07-30T21:21:05.695Z,3.72
2022-07-30T21:23:35.682Z,4.15
2022-07-30T21:26:13.401Z,3.72
2022-07-30T21:28:43.274Z,4.95
2022-07-30T21:31:14.465Z,5.80
2022-07-30T21:33:43.857Z,5.40
2022-07-30T21:36:15.135Z,7.57
2022-07-30T21:38:44.985Z,5.95
2022-07-30T21:41:15.104Z,6.60
2022-07-30T21:43:45.554Z,5.60
2022-07-30T21:46:24.928Z,5.50
2022-07-30T21:48:59.290Z,6.13
2022-07-30T21:51:28.774Z,4.88
2022-07-30T21:53:59.666Z,4.80
2022-07-30T21:56:28.821Z,4.60
2022-07-30T21:58:58.181Z,4.57
2022-07-30T22:01:29.271Z,4.20
2022-07-30T22:04:07.928Z,4.32
2022-07-30T22:06:40.036Z,3.75
2022-07-30T22:12:01.473Z,4.88
2022-07-30T22:14:31.640Z,3.38
2022-07-30T22:17:04.404Z,5.40
2022-07-30T22:19:33.997Z,5.70
2022-07-30T22:22:26.054Z,6.50
2022-07-30T22:24:52.451Z,6.50
2022-07-30T22:27:22.271Z,6.13
2022-07-30T22:29:51.464Z,6.30
2022-07-30T22:32:27.330Z,6.68
2022-07-30T22:37:46.633Z,5.82
2022-07-30T22:40:17.203Z,6.43
2022-07-30T22:42:50.106Z,6.70
2022-07-30T22:45:34.063Z,6.57
2022-07-30T22:48:11.409Z,5.68
2022-07-30T22:53:23.357Z,5.18
2022-07-30T22:55:59.738Z,4.93
2022-07-30T22:58:29.781Z,4.95
2022-07-30T23:00:59.178Z,5.82
2022-07-30T23:03:30.437Z,7.55
2022-07-30T23:06:00.078Z,6.95
2022-07-30T23:08:30.956Z,6.60
2022-07-30T23:11:01.140Z,7.40
2022-07-30T23:13:31.866Z,4.03
2022-07-30T23:16:01.263Z,4.78
2022-07-30T23:18:32.426Z,4.32
2022-07-30T23:21:02.280Z,3.85
2022-07-30T23:23:35.174Z,3.80
2022-07-30T23:26:04.864Z,3.60
2022-07-30T23:28:34.177Z,3.55
2022-07-30T23:31:03.560Z,3.20
2022-07-30T23:33:34.828Z,2.90
2022-07-30T23:36:07.049Z,3.65
2022-07-30T23:38:36.562Z,3.13
2022-07-30T23:41:06.387Z,3.20
2022-07-30T23:43:36.004Z,3.17
2022-07-30T23:46:06.206Z,3.17
2022-07-30T23:48:42.474Z,2.70
2022-07-30T23:51:11.666Z,2.88
2022-07-30T23:53:40.820Z,3.10
2022-07-30T23:56:15.935Z,2.78
2022-07-30T23:58:45.547Z,2.80
